EKAHESMT

Guest
Details From EKAH - Aarhus
To ESMT - Halmstad
Flight Number -
Tags generated
Created
Modified
Stats Distance 77 nm / 142 km
Max Altitude 8,700 ft / 2,652 m
Waypoints 3
Social Downloads 0
Likes 0
Share VATSIM

Download

Looking for another format? Having issues loading an existing format? Contact us
Advertisement - Login to hide

Notes

Basic altitude profile: - Ascent Rate: 2500ft/min - Ascent Speed: 250kts - Cruise Altitude: 35000ft - Cruise Speed: 420kts - Descent Rate: 1500ft/min - Descent Speed: 250kts Options: - Use NATs: no - Use PACOTS: no - Use low airways: yes - Use high airways: no

Route

EKAH NORTI ESMT

ID Type Via Altitude Latitude Longitude Leg Dist Tot Dist Heading (true) Name
O EKAH APT - 0 ft / 0 m 56.30426˚ 10.61945˚ - 0 nm - Aarhus
NORTI FIX - 8,700 ft / 2,652 m 56.52444˚ 11.62556˚ 35 nm 35 nm 68° / 69° -
O ESMT APT - 0 ft / 0 m 56.69110˚ 12.82020˚ 40 nm 76 nm 75° / 76° Halmstad

Altitude Profile

Advertisement - Login to hide

EKAH

Details ICAO EKAH (AAR)
Name Aarhus
Region Denmark / Faroe Islands
Timezone Europe/Copenhagen (UTC+2.0)
Stats Elevation 82 ft / 25 m (AMSL)
Location 56.304265° 10.619452°
Runways 2
Magnetic Variation 3.118° E

METAR

EKAH 221420Z AUTO 08008KT 9999NDV NCD 22/07 Q1018

Decode

TAF

TAF EKAH 221059Z 2212/2312 07008KT CAVOK

Decode

Departure Runways

ID Width Length Bearing (true) Bearing (mag) Surface Threshold Offset Overrun Length
10L 75 ft / 23 m 9,081 ft / 2,768 m 100.30° 97.18° Asphalt 0 ft / 0 m 0 ft / 0 m
10R 148 ft / 45 m 8,837 ft / 2,693 m 100.29° 97.17° Asphalt 0 ft / 0 m 902 ft / 275 m
28L 148 ft / 45 m 8,837 ft / 2,693 m 280.33° 277.21° Asphalt 0 ft / 0 m 738 ft / 225 m
28R 75 ft / 23 m 9,081 ft / 2,768 m 280.34° 277.22° Asphalt 0 ft / 0 m 0 ft / 0 m

ESMT

Details ICAO ESMT (HAD)
Name Halmstad
Region Sweden
Timezone Europe/Stockholm (UTC+2.0)
Stats Elevation 101 ft / 31 m (AMSL)
Location 56.691097° 12.820203°
Runways 1
Magnetic Variation 3.918° E

METAR

ESMT 221420Z 27007KT 230V300 CAVOK 23/06 Q1017

Decode

TAF

Not found

Destination Runways

ID Width Length Bearing (true) Bearing (mag) Surface Threshold Offset Overrun Length
01 131 ft / 40 m 7,410 ft / 2,259 m 6.19° 2.27° Asphalt 0 ft / 0 m 0 ft / 0 m
19 131 ft / 40 m 7,410 ft / 2,259 m 186.19° 182.27° Asphalt 0 ft / 0 m 0 ft / 0 m

Approach Navaids

Runway Type Ident Frequency Range Bearing (true) Bearing (mag) Slope Elevation
19 Localiser MT 110.10 MHz 18 nm / 33 km 186.18° 182.26° - 101 ft / 31 m (AMSL)
19 Glidescope MT 110.10 MHz 10 nm / 19 km 186.19° 182.28° 3.00° 101 ft / 31 m (AMSL)